Time;durP1;ratioP1;P1;durP2;ratioP2;P2;SDS_P1;SDS_P2;PMS_P1;PMS_P2;Temp;Humidity;BMP_temperature;BMP_pressure;BME280_temperature;BME280_humidity;BME280_pressure;Samples;Min_cycle;Max_cycle;Signal;HPM_P1;HPM_P2
2022/01/19 00:01:39;;;;;;;51.53;20.70;;;;;;;;;;4394589;32;20228;-50
2022/01/19 00:04:05;;;;;;;39.10;21.87;;;;;;;;;;4399528;32;20546;-51
2022/01/19 00:06:31;;;;;;;50.47;24.20;;;;;;;;;;4399098;32;20250;-50
2022/01/19 00:08:56;;;;;;;50.57;24.27;;;;;;;;;;4402081;32;20281;-51
2022/01/19 00:11:22;;;;;;;58.37;26.70;;;;;;;;;;4397083;32;20337;-51
2022/01/19 00:13:49;;;;;;;51.13;25.50;;;;;;;;;;4404621;32;20311;-51
2022/01/19 00:16:15;;;;;;;66.07;28.40;;;;;;;;;;4400888;32;20570;-51
2022/01/19 00:18:40;;;;;;;61.20;28.23;;;;;;;;;;4402174;32;20222;-51
2022/01/19 00:21:06;;;;;;;66.23;31.97;;;;;;;;;;4409503;32;20267;-51
2022/01/19 00:23:31;;;;;;;64.07;31.33;;;;;;;;;;4417650;32;20677;-50
2022/01/19 00:25:57;;;;;;;60.00;28.87;;;;;;;;;;4405815;32;20257;-52
2022/01/19 00:28:23;;;;;;;56.13;25.37;;;;;;;;;;4391902;32;20793;-52
2022/01/19 00:30:49;;;;;;;43.73;23.03;;;;;;;;;;4404707;32;20835;-52
2022/01/19 00:33:15;;;;;;;92.77;36.40;;;;;;;;;;4399630;32;20218;-51
2022/01/19 00:35:41;;;;;;;75.60;34.43;;;;;;;;;;4404906;32;20229;-51
2022/01/19 00:38:09;;;;;;;66.07;26.80;;;;;;;;;;4397061;32;20356;-50
2022/01/19 00:40:36;;;;;;;58.47;25.40;;;;;;;;;;4395184;32;20283;-51
2022/01/19 00:43:02;;;;;;;50.60;20.50;;;;;;;;;;4390529;32;20296;-53
2022/01/19 00:45:27;;;;;;;42.27;16.87;;;;;;;;;;4392275;32;20688;-51
2022/01/19 00:47:53;;;;;;;30.50;16.10;;;;;;;;;;4395730;32;20249;-53
2022/01/19 00:50:25;;;;;;;25.30;15.30;;;;;;;;;;4394931;32;20253;-52
2022/01/19 00:52:52;;;;;;;34.20;15.87;;;;;;;;;;4400521;32;20290;-54
2022/01/19 00:55:19;;;;;;;26.63;13.90;;;;;;;;;;4397717;32;20218;-53
2022/01/19 00:57:45;;;;;;;31.30;14.50;;;;;;;;;;4416767;32;20209;-53
2022/01/19 01:00:14;;;;;;;37.73;15.60;;;;;;;;;;4408351;32;20216;-52
2022/01/19 01:02:39;;;;;;;42.70;16.50;;;;;;;;;;4416838;32;20201;-52
2022/01/19 01:05:05;;;;;;;26.23;13.57;;;;;;;;;;4403807;32;20927;-52
2022/01/19 01:07:33;;;;;;;33.23;12.30;;;;;;;;;;4415117;32;20253;-52
2022/01/19 01:10:00;;;;;;;27.17;11.70;;;;;;;;;;4403978;32;20362;-52
2022/01/19 01:12:44;;;;;;;27.83;13.00;;;;;;;;;;4416667;32;20749;-53
2022/01/19 01:20:36;;;;;;;24.03;10.83;;;;;;;;;;4397227;32;20283;-54
2022/01/19 01:23:02;;;;;;;28.83;12.97;;;;;;;;;;4396424;32;20311;-51
2022/01/19 01:25:27;;;;;;;30.33;12.97;;;;;;;;;;4391142;32;20262;-52
2022/01/19 01:27:53;;;;;;;23.23;11.97;;;;;;;;;;4401085;32;20765;-52
2022/01/19 01:30:19;;;;;;;28.17;11.70;;;;;;;;;;4399977;32;20233;-52
2022/01/19 01:32:45;;;;;;;17.73;9.33;;;;;;;;;;4416647;32;20601;-52
2022/01/19 01:35:10;;;;;;;20.53;9.07;;;;;;;;;;4396732;32;20299;-52
2022/01/19 01:37:36;;;;;;;18.67;8.90;;;;;;;;;;4416612;32;20209;-52
2022/01/19 01:40:03;;;;;;;14.17;5.53;;;;;;;;;;4415439;32;20556;-53
2022/01/19 01:42:29;;;;;;;15.37;7.20;;;;;;;;;;4385152;32;20319;-52
2022/01/19 01:44:58;;;;;;;10.60;6.17;;;;;;;;;;4389401;32;20734;-53
2022/01/19 01:47:25;;;;;;;16.43;6.37;;;;;;;;;;4416203;32;20530;-52
2022/01/19 01:55:04;;;;;;;24.67;9.57;;;;;;;;;;4416161;32;20345;-53
2022/01/19 01:57:30;;;;;;;25.47;9.13;;;;;;;;;;4416616;32;20237;-52
2022/01/19 01:59:55;;;;;;;18.43;8.17;;;;;;;;;;4406399;32;20646;-52
2022/01/19 02:02:21;;;;;;;17.27;7.80;;;;;;;;;;4400001;32;20263;-52
2022/01/19 02:04:46;;;;;;;17.87;10.67;;;;;;;;;;4401678;32;20280;-53
2022/01/19 02:07:39;;;;;;;14.10;6.83;;;;;;;;;;4414460;32;20331;-52
2022/01/19 02:10:08;;;;;;;21.87;10.00;;;;;;;;;;4401140;32;20243;-51
2022/01/19 02:23:46;;;;;;;19.20;9.13;;;;;;;;;;4416248;32;20236;-52
2022/01/19 02:26:18;;;;;;;26.77;9.73;;;;;;;;;;4414561;32;20229;-51
2022/01/19 02:29:07;;;;;;;20.27;9.63;;;;;;;;;;4404220;32;20677;-52
2022/01/19 02:31:51;;;;;;;22.97;11.23;;;;;;;;;;4410276;32;20307;-53
2022/01/19 02:42:41;;;;;;;30.77;13.13;;;;;;;;;;4399489;32;20824;-55
2022/01/19 02:50:19;;;;;;;22.97;11.13;;;;;;;;;;4405796;32;20228;-52
2022/01/19 02:52:45;;;;;;;25.40;11.47;;;;;;;;;;4419414;32;20705;-52
2022/01/19 02:55:10;;;;;;;32.17;15.23;;;;;;;;;;4417820;32;20288;-53
2022/01/19 02:57:37;;;;;;;25.57;11.80;;;;;;;;;;4397338;32;20201;-52
2022/01/19 03:06:32;;;;;;;20.73;11.20;;;;;;;;;;4389023;32;20276;-51
2022/01/19 03:11:08;;;;;;;41.10;17.03;;;;;;;;;;4410544;32;20263;-52
2022/01/19 03:13:33;;;;;;;33.03;15.37;;;;;;;;;;4415206;32;20299;-54
2022/01/19 03:15:59;;;;;;;43.50;17.13;;;;;;;;;;4409589;32;20308;-53
2022/01/19 03:18:25;;;;;;;36.93;16.33;;;;;;;;;;4390498;32;20244;-53
2022/01/19 03:20:50;;;;;;;49.07;21.97;;;;;;;;;;4397424;32;20263;-53
2022/01/19 03:23:20;;;;;;;39.80;18.80;;;;;;;;;;4418533;32;20697;-54
2022/01/19 03:25:47;;;;;;;58.27;22.77;;;;;;;;;;4414684;32;20528;-53
2022/01/19 03:28:14;;;;;;;51.17;23.60;;;;;;;;;;4418576;32;20288;-54
2022/01/19 03:30:39;;;;;;;59.73;23.03;;;;;;;;;;4410044;32;20229;-52
2022/01/19 03:33:05;;;;;;;50.23;21.20;;;;;;;;;;4403769;32;20345;-53
2022/01/19 03:35:31;;;;;;;36.10;16.77;;;;;;;;;;4401490;32;20287;-53
2022/01/19 03:37:56;;;;;;;59.13;22.50;;;;;;;;;;4386255;32;20366;-53
2022/01/19 03:40:22;;;;;;;42.67;18.13;;;;;;;;;;4391917;32;20842;-52
2022/01/19 03:42:49;;;;;;;35.17;16.00;;;;;;;;;;4418557;32;20212;-53
2022/01/19 03:45:14;;;;;;;52.47;20.67;;;;;;;;;;4408602;32;20289;-53
2022/01/19 03:47:48;;;;;;;46.57;22.00;;;;;;;;;;4418602;32;20225;-52
2022/01/19 03:50:13;;;;;;;39.43;19.53;;;;;;;;;;4417926;32;20597;-53
2022/01/19 03:52:39;;;;;;;50.77;21.80;;;;;;;;;;4416972;32;20300;-54
2022/01/19 03:55:05;;;;;;;39.27;20.77;;;;;;;;;;4408363;32;20222;-53
2022/01/19 03:57:31;;;;;;;37.73;19.97;;;;;;;;;;4417424;32;20249;-53
2022/01/19 03:59:56;;;;;;;53.90;23.00;;;;;;;;;;4417907;32;20788;-53
2022/01/19 04:02:22;;;;;;;46.40;19.83;;;;;;;;;;4418025;32;20291;-54
2022/01/19 04:04:50;;;;;;;41.90;19.57;;;;;;;;;;4405101;32;20351;-52
2022/01/19 04:07:16;;;;;;;33.40;16.97;;;;;;;;;;4416624;32;20646;-53
2022/01/19 04:09:44;;;;;;;40.77;18.57;;;;;;;;;;4417763;32;20346;-53
2022/01/19 04:12:13;;;;;;;41.00;21.00;;;;;;;;;;4417829;32;20221;-53
2022/01/19 04:14:39;;;;;;;49.47;23.57;;;;;;;;;;4387987;32;20280;-53
2022/01/19 04:17:07;;;;;;;59.07;30.50;;;;;;;;;;4413319;32;20237;-55
2022/01/19 04:22:06;;;;;;;80.20;36.97;;;;;;;;;;4404230;32;20334;-53
2022/01/19 04:24:32;;;;;;;82.13;37.50;;;;;;;;;;4402465;32;20210;-52
2022/01/19 04:29:59;;;;;;;66.10;27.27;;;;;;;;;;4389078;32;20293;-53
2022/01/19 04:32:48;;;;;;;52.13;22.17;;;;;;;;;;4417169;32;20288;-52
2022/01/19 04:35:18;;;;;;;41.07;20.37;;;;;;;;;;4397495;32;20304;-52
2022/01/19 05:05:16;;;;;;;107.30;32.73;;;;;;;;;;4399219;32;20311;-51
2022/01/19 05:15:53;;;;;;;42.67;18.50;;;;;;;;;;4374420;32;20246;-51
2022/01/19 05:18:19;;;;;;;58.50;25.47;;;;;;;;;;4395366;32;20275;-52
2022/01/19 05:20:47;;;;;;;45.47;19.57;;;;;;;;;;4416987;32;20271;-50
2022/01/19 05:23:13;;;;;;;41.87;15.90;;;;;;;;;;4416381;32;20779;-51
2022/01/19 05:25:38;;;;;;;41.30;17.60;;;;;;;;;;4402451;32;20224;-51
2022/01/19 05:28:04;;;;;;;32.77;13.37;;;;;;;;;;4417175;32;20316;-51
2022/01/19 05:30:30;;;;;;;30.87;13.13;;;;;;;;;;4404606;32;20383;-51
2022/01/19 05:32:55;;;;;;;36.50;16.53;;;;;;;;;;4401162;32;20439;-52
2022/01/19 05:35:21;;;;;;;30.77;14.50;;;;;;;;;;4403629;32;20288;-52
2022/01/19 05:37:46;;;;;;;27.93;14.23;;;;;;;;;;4416472;32;20579;-51
2022/01/19 05:40:16;;;;;;;28.40;13.73;;;;;;;;;;4415513;32;20827;-51
2022/01/19 05:42:42;;;;;;;27.03;14.13;;;;;;;;;;4401051;32;20335;-52
2022/01/19 05:45:11;;;;;;;27.27;14.43;;;;;;;;;;4398944;32;20785;-51
2022/01/19 05:47:36;;;;;;;68.03;29.03;;;;;;;;;;4416325;32;20298;-51
2022/01/19 05:50:03;;;;;;;96.67;43.50;;;;;;;;;;4416754;32;20365;-52
2022/01/19 05:52:28;;;;;;;132.37;53.60;;;;;;;;;;4391403;32;20273;-52
2022/01/19 05:54:53;;;;;;;121.03;54.60;;;;;;;;;;4400293;32;20265;-52
2022/01/19 05:57:19;;;;;;;93.70;45.27;;;;;;;;;;4404779;32;20297;-53
2022/01/19 05:59:44;;;;;;;108.00;47.77;;;;;;;;;;4405044;32;20292;-52
2022/01/19 06:02:10;;;;;;;80.77;39.70;;;;;;;;;;4411770;32;20255;-52
2022/01/19 06:04:35;;;;;;;109.07;49.30;;;;;;;;;;4388080;32;20311;-53
2022/01/19 06:07:03;;;;;;;139.00;61.20;;;;;;;;;;4410400;32;20341;-52
2022/01/19 06:09:37;;;;;;;157.80;65.33;;;;;;;;;;4415326;32;20239;-51
2022/01/19 06:12:08;;;;;;;108.77;52.17;;;;;;;;;;4399196;32;20291;-51
2022/01/19 06:14:35;;;;;;;156.97;67.23;;;;;;;;;;4410694;32;20770;-51
2022/01/19 06:17:01;;;;;;;147.67;69.23;;;;;;;;;;4397412;32;20601;-52
2022/01/19 06:19:26;;;;;;;122.87;60.73;;;;;;;;;;4401092;32;20292;-51
2022/01/19 06:21:53;;;;;;;89.77;43.70;;;;;;;;;;4412243;32;20250;-52
2022/01/19 06:24:18;;;;;;;80.53;40.37;;;;;;;;;;4405411;32;20219;-53
2022/01/19 06:26:44;;;;;;;82.80;43.53;;;;;;;;;;4396031;32;20283;-52
2022/01/19 06:29:10;;;;;;;75.23;40.57;;;;;;;;;;4403558;32;20378;-54
2022/01/19 06:31:35;;;;;;;75.27;35.93;;;;;;;;;;4406772;32;20649;-51
2022/01/19 06:34:00;;;;;;;72.37;31.73;;;;;;;;;;4409182;32;20273;-51
2022/01/19 06:36:26;;;;;;;65.57;34.23;;;;;;;;;;4402365;32;20261;-51
2022/01/19 06:38:52;;;;;;;84.17;38.73;;;;;;;;;;4384794;32;20364;-52
2022/01/19 06:56:37;;;;;;;133.37;69.17;;;;;;;;;;4473688;31;20684;-51
2022/01/19 06:59:04;;;;;;;141.47;69.53;;;;;;;;;;4459978;32;20694;-52
2022/01/19 07:01:32;;;;;;;175.40;79.23;;;;;;;;;;4450738;32;20322;-52
2022/01/19 07:03:58;;;;;;;163.93;78.57;;;;;;;;;;4442924;32;20338;-51
2022/01/19 07:06:23;;;;;;;163.17;76.57;;;;;;;;;;4430669;32;20335;-52
2022/01/19 07:08:49;;;;;;;168.57;82.93;;;;;;;;;;4443432;32;20725;-52
2022/01/19 07:11:14;;;;;;;177.40;83.67;;;;;;;;;;4445238;32;20299;-52
2022/01/19 07:13:40;;;;;;;153.83;73.73;;;;;;;;;;4448054;32;20292;-52
2022/01/19 07:16:05;;;;;;;174.07;80.07;;;;;;;;;;4442991;32;20891;-54
2022/01/19 07:18:31;;;;;;;170.87;76.23;;;;;;;;;;4444385;32;20698;-55
2022/01/19 07:20:57;;;;;;;250.60;125.60;;;;;;;;;;4444532;32;20293;-55
2022/01/19 07:23:22;;;;;;;89.07;45.93;;;;;;;;;;4441517;32;20221;-52
2022/01/19 07:25:48;;;;;;;113.53;54.23;;;;;;;;;;4443744;32;20240;-54
2022/01/19 07:28:13;;;;;;;117.93;66.20;;;;;;;;;;4445253;32;20239;-53
2022/01/19 07:30:39;;;;;;;86.90;47.47;;;;;;;;;;4451860;32;20344;-53
2022/01/19 07:33:05;;;;;;;96.30;47.37;;;;;;;;;;4436698;32;20370;-57
2022/01/19 07:35:30;;;;;;;74.07;40.90;;;;;;;;;;4454974;32;20751;-55
2022/01/19 07:37:56;;;;;;;95.17;43.30;;;;;;;;;;4438077;32;20695;-56
2022/01/19 07:40:22;;;;;;;113.77;57.50;;;;;;;;;;4433097;32;20300;-55
2022/01/19 07:42:48;;;;;;;94.30;43.73;;;;;;;;;;4429540;32;20325;-52
2022/01/19 07:45:14;;;;;;;78.00;39.57;;;;;;;;;;4442297;32;20342;-53
2022/01/19 07:47:39;;;;;;;82.23;39.03;;;;;;;;;;4460456;32;20665;-55
2022/01/19 07:50:05;;;;;;;45.47;25.67;;;;;;;;;;4441199;32;20349;-53
2022/01/19 07:52:31;;;;;;;51.87;28.57;;;;;;;;;;4429026;32;20617;-55
2022/01/19 07:54:56;;;;;;;60.27;26.53;;;;;;;;;;4450940;32;20235;-54
2022/01/19 07:57:22;;;;;;;57.40;28.63;;;;;;;;;;4449265;32;20471;-54
2022/01/19 07:59:47;;;;;;;52.57;24.63;;;;;;;;;;4437271;32;20232;-53
2022/01/19 08:02:13;;;;;;;50.77;25.70;;;;;;;;;;4434273;32;20238;-53
2022/01/19 08:04:39;;;;;;;42.50;22.93;;;;;;;;;;4419709;32;20315;-53
2022/01/19 08:07:05;;;;;;;38.60;21.23;;;;;;;;;;4420383;32;20319;-53
2022/01/19 08:09:31;;;;;;;44.90;21.63;;;;;;;;;;4427650;32;20248;-55
2022/01/19 08:11:57;;;;;;;69.00;30.80;;;;;;;;;;4433147;32;20607;-54
2022/01/19 08:14:24;;;;;;;68.97;33.03;;;;;;;;;;4432171;32;20430;-55
2022/01/19 08:16:51;;;;;;;69.60;26.40;;;;;;;;;;4432211;32;20414;-53
2022/01/19 08:19:16;;;;;;;72.40;35.50;;;;;;;;;;4424992;32;20244;-52
2022/01/19 08:21:42;;;;;;;51.63;25.13;;;;;;;;;;4433481;32;20568;-53
2022/01/19 08:24:07;;;;;;;68.67;30.90;;;;;;;;;;4430570;32;20220;-53
2022/01/19 08:26:33;;;;;;;43.60;21.90;;;;;;;;;;4433614;32;20268;-54
2022/01/19 08:28:58;;;;;;;41.90;19.23;;;;;;;;;;4436988;32;20279;-56
2022/01/19 08:31:24;;;;;;;42.67;22.03;;;;;;;;;;4439781;32;20260;-56
2022/01/19 08:33:49;;;;;;;38.63;22.47;;;;;;;;;;4439187;32;20315;-54
2022/01/19 08:36:16;;;;;;;41.30;24.53;;;;;;;;;;4420121;32;20593;-53
2022/01/19 08:38:42;;;;;;;36.27;19.67;;;;;;;;;;4432333;32;20236;-54
2022/01/19 08:41:08;;;;;;;43.87;22.80;;;;;;;;;;4433092;32;20627;-54
2022/01/19 08:43:34;;;;;;;52.70;24.10;;;;;;;;;;4431861;32;20259;-52
2022/01/19 08:45:59;;;;;;;30.93;19.47;;;;;;;;;;4420902;32;20387;-53
2022/01/19 08:48:26;;;;;;;41.50;22.90;;;;;;;;;;4419143;32;20841;-54
2022/01/19 08:50:53;;;;;;;45.07;21.07;;;;;;;;;;4432905;32;20274;-53
2022/01/19 08:53:18;;;;;;;30.20;16.97;;;;;;;;;;4433379;32;20355;-53
2022/01/19 08:55:44;;;;;;;35.10;18.93;;;;;;;;;;4429445;32;20279;-52
2022/01/19 08:58:10;;;;;;;35.17;17.77;;;;;;;;;;4426938;32;20236;-53
2022/01/19 09:00:37;;;;;;;38.17;18.10;;;;;;;;;;4433184;32;20237;-53
2022/01/19 09:03:03;;;;;;;47.47;20.83;;;;;;;;;;4430790;32;20264;-52
2022/01/19 09:05:28;;;;;;;53.77;21.60;;;;;;;;;;4432060;32;20670;-52
2022/01/19 09:07:55;;;;;;;51.07;20.10;;;;;;;;;;4431387;32;20315;-53
2022/01/19 09:10:21;;;;;;;31.00;14.17;;;;;;;;;;4431046;32;20241;-55
2022/01/19 09:12:47;;;;;;;42.37;18.40;;;;;;;;;;4428177;32;20228;-52
2022/01/19 09:15:13;;;;;;;125.43;46.13;;;;;;;;;;4431137;32;20248;-52
2022/01/19 09:17:41;;;;;;;78.07;26.60;;;;;;;;;;4428766;32;20266;-53
2022/01/19 09:20:09;;;;;;;100.13;40.40;;;;;;;;;;4428212;32;20240;-53
2022/01/19 09:22:34;;;;;;;115.37;45.93;;;;;;;;;;4432960;32;20248;-52
2022/01/19 09:25:01;;;;;;;41.20;22.23;;;;;;;;;;4427948;32;20250;-53
2022/01/19 09:27:27;;;;;;;21.07;12.80;;;;;;;;;;4432542;32;20239;-52
2022/01/19 09:29:52;;;;;;;20.93;12.30;;;;;;;;;;4431187;32;20577;-53
2022/01/19 09:32:17;;;;;;;29.23;13.63;;;;;;;;;;4448076;32;20322;-52
2022/01/19 09:34:49;;;;;;;38.23;15.70;;;;;;;;;;4435379;32;20355;-52
2022/01/19 09:37:16;;;;;;;30.03;12.80;;;;;;;;;;4433091;32;20221;-52
2022/01/19 09:39:42;;;;;;;21.97;9.70;;;;;;;;;;4430406;32;20266;-52
2022/01/19 09:42:07;;;;;;;20.93;11.10;;;;;;;;;;4433566;32;20336;-52
2022/01/19 09:44:33;;;;;;;22.63;11.73;;;;;;;;;;4435542;32;20924;-53
2022/01/19 09:46:59;;;;;;;22.33;11.80;;;;;;;;;;4433232;32;20311;-53
2022/01/19 09:49:25;;;;;;;17.67;9.47;;;;;;;;;;4428719;32;20449;-52
2022/01/19 09:51:54;;;;;;;26.23;12.73;;;;;;;;;;4424949;32;20282;-53
2022/01/19 09:54:21;;;;;;;18.93;8.87;;;;;;;;;;4421623;32;20351;-55
2022/01/19 09:56:48;;;;;;;12.00;6.47;;;;;;;;;;4416776;32;20780;-53
2022/01/19 09:59:15;;;;;;;13.13;7.80;;;;;;;;;;4421335;32;20658;-53
2022/01/19 10:02:02;;;;;;;13.63;6.63;;;;;;;;;;4430092;32;20213;-53
2022/01/19 10:04:30;;;;;;;11.90;4.73;;;;;;;;;;4432289;32;20248;-54
2022/01/19 10:07:14;;;;;;;12.60;6.80;;;;;;;;;;4416777;32;20676;-54
2022/01/19 10:09:52;;;;;;;7.97;5.90;;;;;;;;;;4423851;32;20236;-54
2022/01/19 10:18:29;;;;;;;11.17;6.23;;;;;;;;;;4418551;32;20243;-54
2022/01/19 10:21:13;;;;;;;14.97;6.60;;;;;;;;;;4412197;32;20236;-52
2022/01/19 10:23:48;;;;;;;18.13;8.23;;;;;;;;;;4431141;32;20518;-53
2022/01/19 10:26:22;;;;;;;23.33;10.10;;;;;;;;;;4427439;32;20581;-52
2022/01/19 10:28:58;;;;;;;13.23;7.43;;;;;;;;;;4446298;32;20243;-53
2022/01/19 10:31:24;;;;;;;14.10;7.57;;;;;;;;;;4426354;32;20224;-53
2022/01/19 10:34:28;;;;;;;12.83;8.07;;;;;;;;;;4432633;32;20805;-55
2022/01/19 10:36:56;;;;;;;15.77;7.73;;;;;;;;;;4377422;32;20252;-53
2022/01/19 10:39:24;;;;;;;15.50;6.60;;;;;;;;;;4377670;32;20384;-52
2022/01/19 10:42:17;;;;;;;13.00;6.90;;;;;;;;;;4388022;32;20794;-53
2022/01/19 10:44:47;;;;;;;16.47;7.87;;;;;;;;;;4415089;32;20292;-53
2022/01/19 10:47:14;;;;;;;15.40;6.83;;;;;;;;;;4426943;32;20420;-52
2022/01/19 10:49:57;;;;;;;12.60;6.43;;;;;;;;;;4429099;32;20342;-52
2022/01/19 10:52:28;;;;;;;11.23;6.63;;;;;;;;;;4425953;32;20345;-53
2022/01/19 10:54:54;;;;;;;13.33;7.90;;;;;;;;;;4426069;32;20346;-53
2022/01/19 10:57:20;;;;;;;17.13;7.57;;;;;;;;;;4423936;32;20304;-52
2022/01/19 10:59:45;;;;;;;10.90;7.00;;;;;;;;;;4426244;32;20730;-55
2022/01/19 11:02:12;;;;;;;18.63;8.53;;;;;;;;;;4422137;32;20562;-53
2022/01/19 11:04:39;;;;;;;12.30;6.97;;;;;;;;;;4415757;32;20335;-52
2022/01/19 11:07:11;;;;;;;21.13;8.87;;;;;;;;;;4428514;32;20251;-55
2022/01/19 11:09:57;;;;;;;11.73;7.13;;;;;;;;;;4430501;32;20555;-52
2022/01/19 11:12:27;;;;;;;21.50;10.80;;;;;;;;;;4426858;32;20325;-54
2022/01/19 11:14:52;;;;;;;14.10;8.63;;;;;;;;;;4429648;32;20327;-53
2022/01/19 11:17:18;;;;;;;18.87;8.57;;;;;;;;;;4429762;32;20224;-52
2022/01/19 11:19:44;;;;;;;18.90;8.90;;;;;;;;;;4427928;32;20266;-55
2022/01/19 11:22:09;;;;;;;15.30;7.67;;;;;;;;;;4426383;32;20717;-54
2022/01/19 11:24:46;;;;;;;14.70;8.17;;;;;;;;;;4428678;32;20245;-54
2022/01/19 11:27:13;;;;;;;29.50;16.40;;;;;;;;;;4426836;32;20717;-54
2022/01/19 11:29:40;;;;;;;20.67;10.73;;;;;;;;;;4427905;32;20190;-54
2022/01/19 11:32:19;;;;;;;15.17;9.00;;;;;;;;;;4429260;32;20350;-55
2022/01/19 11:34:53;;;;;;;17.43;9.13;;;;;;;;;;4427121;32;20197;-53
2022/01/19 11:37:39;;;;;;;20.60;10.30;;;;;;;;;;4435255;32;20356;-54
2022/01/19 11:40:09;;;;;;;16.33;8.63;;;;;;;;;;4431907;32;20212;-52
2022/01/19 11:42:34;;;;;;;13.67;8.80;;;;;;;;;;4430419;32;20271;-53
2022/01/19 11:45:01;;;;;;;15.67;8.33;;;;;;;;;;4428024;32;20676;-54
2022/01/19 11:47:29;;;;;;;14.30;8.50;;;;;;;;;;4430385;32;20271;-54
2022/01/19 11:49:57;;;;;;;13.67;7.33;;;;;;;;;;4430230;32;20248;-53
2022/01/19 11:52:43;;;;;;;11.67;6.07;;;;;;;;;;4433386;32;20278;-53
2022/01/19 11:55:12;;;;;;;11.10;6.43;;;;;;;;;;4430931;32;20324;-54
2022/01/19 11:57:40;;;;;;;7.17;4.97;;;;;;;;;;4433519;32;20228;-54
2022/01/19 12:00:11;;;;;;;92.03;37.03;;;;;;;;;;4432321;32;20341;-55
2022/01/19 12:02:39;;;;;;;26.60;11.37;;;;;;;;;;4434338;32;20636;-53
2022/01/19 12:05:11;;;;;;;19.73;11.90;;;;;;;;;;4432621;32;20214;-54
2022/01/19 12:07:36;;;;;;;14.47;7.07;;;;;;;;;;4431005;32;20217;-53
2022/01/19 12:10:04;;;;;;;19.40;8.63;;;;;;;;;;4433198;32;20275;-53
2022/01/19 12:12:34;;;;;;;7.93;5.03;;;;;;;;;;4442509;32;20804;-53
2022/01/19 12:15:05;;;;;;;13.03;5.60;;;;;;;;;;4432411;32;20304;-53
2022/01/19 12:17:55;;;;;;;18.07;6.90;;;;;;;;;;4427560;32;20335;-53
2022/01/19 12:20:48;;;;;;;17.43;9.57;;;;;;;;;;4433859;32;20276;-54
2022/01/19 12:23:25;;;;;;;19.67;8.97;;;;;;;;;;4433265;32;20282;-53
2022/01/19 12:25:55;;;;;;;11.63;5.70;;;;;;;;;;4433141;32;20242;-53
2022/01/19 12:28:39;;;;;;;9.10;5.60;;;;;;;;;;4444435;32;20300;-52
2022/01/19 12:31:37;;;;;;;13.87;5.93;;;;;;;;;;4436475;32;20645;-53
2022/01/19 12:34:02;;;;;;;9.13;6.20;;;;;;;;;;4433267;32;20240;-54
2022/01/19 12:36:50;;;;;;;7.90;4.67;;;;;;;;;;4426994;32;20233;-54
2022/01/19 12:39:24;;;;;;;10.77;5.80;;;;;;;;;;4435424;32;20235;-54
2022/01/19 12:42:15;;;;;;;9.40;5.43;;;;;;;;;;4434840;32;20334;-53
2022/01/19 12:44:40;;;;;;;25.10;10.03;;;;;;;;;;4434060;32;20302;-52
2022/01/19 12:47:29;;;;;;;9.67;6.07;;;;;;;;;;4434164;32;20638;-52
2022/01/19 12:50:04;;;;;;;70.40;24.37;;;;;;;;;;4434335;32;20229;-52
2022/01/19 12:52:31;;;;;;;16.20;7.47;;;;;;;;;;4418921;32;20319;-54
2022/01/19 12:55:07;;;;;;;23.87;13.60;;;;;;;;;;4425053;32;21384;-52
2022/01/19 12:57:33;;;;;;;15.93;7.10;;;;;;;;;;4426842;32;20236;-53
2022/01/19 12:59:59;;;;;;;11.63;5.87;;;;;;;;;;4433453;32;20480;-53
2022/01/19 13:02:28;;;;;;;6.33;4.63;;;;;;;;;;4433359;32;20604;-53
2022/01/19 13:05:14;;;;;;;9.37;4.73;;;;;;;;;;4426067;32;20279;-52
2022/01/19 13:07:43;;;;;;;12.03;5.00;;;;;;;;;;4433136;32;20312;-52
2022/01/19 13:13:23;;;;;;;10.20;5.63;;;;;;;;;;4433843;32;20251;-53
2022/01/19 13:15:57;;;;;;;9.00;4.70;;;;;;;;;;4429287;32;20256;-52
2022/01/19 13:18:30;;;;;;;6.87;5.03;;;;;;;;;;4447089;32;20232;-52
2022/01/19 13:21:02;;;;;;;8.07;5.50;;;;;;;;;;4437599;32;20309;-52
2022/01/19 13:23:30;;;;;;;8.00;4.10;;;;;;;;;;4433192;32;20233;-53
2022/01/19 13:26:05;;;;;;;5.97;4.17;;;;;;;;;;4433263;32;20312;-53
2022/01/19 13:28:32;;;;;;;5.70;4.37;;;;;;;;;;4432034;32;20250;-62
2022/01/19 13:31:12;;;;;;;8.23;5.40;;;;;;;;;;4432025;32;20236;-52
2022/01/19 13:49:55;;;;;;;10.53;5.83;;;;;;;;;;4468528;32;20378;-52
2022/01/19 13:52:23;;;;;;;10.40;5.63;;;;;;;;;;4469636;32;20352;-51
2022/01/19 13:54:49;;;;;;;14.87;5.77;;;;;;;;;;4448275;32;20310;-52
2022/01/19 13:57:26;;;;;;;8.87;4.87;;;;;;;;;;4444427;32;20296;-52
2022/01/19 13:59:51;;;;;;;11.17;6.53;;;;;;;;;;4443599;32;20208;-52
2022/01/19 14:02:18;;;;;;;13.23;5.47;;;;;;;;;;4452305;32;20719;-54
2022/01/19 14:04:54;;;;;;;15.23;7.40;;;;;;;;;;4440640;32;20335;-52
2022/01/19 14:07:20;;;;;;;12.77;7.93;;;;;;;;;;4445611;32;20617;-52
2022/01/19 14:09:47;;;;;;;22.47;11.23;;;;;;;;;;4440765;32;20299;-53
2022/01/19 14:12:16;;;;;;;18.77;10.13;;;;;;;;;;4460045;32;20244;-52
2022/01/19 14:14:50;;;;;;;56.63;18.50;;;;;;;;;;4444906;32;20244;-51
2022/01/19 14:17:34;;;;;;;24.83;10.93;;;;;;;;;;4453056;32;20196;-52
2022/01/19 14:20:00;;;;;;;29.30;15.77;;;;;;;;;;4450678;32;20330;-52
2022/01/19 14:22:28;;;;;;;19.50;7.20;;;;;;;;;;4454114;32;20564;-52
2022/01/19 14:24:58;;;;;;;15.83;9.93;;;;;;;;;;4455188;32;20635;-52
2022/01/19 14:27:23;;;;;;;15.33;8.43;;;;;;;;;;4457427;32;20256;-52
2022/01/19 14:30:02;;;;;;;19.00;8.10;;;;;;;;;;4459952;32;20777;-52
2022/01/19 14:32:37;;;;;;;21.80;9.70;;;;;;;;;;4447208;32;20212;-53
2022/01/19 14:35:26;;;;;;;17.83;9.47;;;;;;;;;;4444551;32;20261;-53
2022/01/19 14:38:04;;;;;;;30.53;13.40;;;;;;;;;;4446186;32;20224;-53
2022/01/19 14:40:33;;;;;;;18.57;10.33;;;;;;;;;;4458820;32;20295;-52
2022/01/19 14:42:59;;;;;;;46.13;21.03;;;;;;;;;;4444322;32;21457;-53
2022/01/19 14:45:34;;;;;;;39.90;18.63;;;;;;;;;;4438294;32;20349;-53
2022/01/19 14:48:12;;;;;;;67.43;26.57;;;;;;;;;;4446135;32;20244;-52
2022/01/19 14:50:38;;;;;;;97.00;39.63;;;;;;;;;;4437600;32;20658;-52
2022/01/19 14:53:05;;;;;;;61.40;25.77;;;;;;;;;;4436508;32;20240;-52
2022/01/19 14:55:36;;;;;;;55.67;24.03;;;;;;;;;;4420376;32;20265;-53
2022/01/19 14:58:05;;;;;;;86.17;35.57;;;;;;;;;;4434044;32;20241;-53
2022/01/19 15:00:31;;;;;;;41.60;19.50;;;;;;;;;;4445410;32;20212;-52
2022/01/19 15:03:00;;;;;;;52.23;25.20;;;;;;;;;;4422625;32;20369;-53
2022/01/19 15:05:36;;;;;;;30.03;16.73;;;;;;;;;;4434267;32;20260;-52
2022/01/19 15:08:04;;;;;;;37.30;17.13;;;;;;;;;;4447498;32;20300;-52
2022/01/19 15:10:31;;;;;;;45.90;21.23;;;;;;;;;;4449785;32;20283;-54
2022/01/19 15:12:58;;;;;;;42.60;23.20;;;;;;;;;;4443969;32;20283;-52
2022/01/19 15:15:26;;;;;;;58.80;27.00;;;;;;;;;;4432725;32;20527;-53
2022/01/19 15:17:54;;;;;;;61.93;34.33;;;;;;;;;;4433929;32;20668;-52
2022/01/19 15:20:20;;;;;;;90.00;45.23;;;;;;;;;;4433736;32;20279;-53
2022/01/19 15:22:46;;;;;;;106.00;54.37;;;;;;;;;;4433662;32;20362;-53
2022/01/19 15:25:12;;;;;;;144.23;65.83;;;;;;;;;;4444509;32;20294;-54
2022/01/19 15:27:38;;;;;;;125.73;59.53;;;;;;;;;;4438630;32;20221;-51
2022/01/19 15:30:06;;;;;;;98.87;50.90;;;;;;;;;;4438335;32;20683;-53
2022/01/19 15:32:32;;;;;;;90.07;44.13;;;;;;;;;;4424938;32;20270;-53
2022/01/19 15:34:57;;;;;;;94.47;45.93;;;;;;;;;;4420079;32;20422;-52
2022/01/19 15:37:23;;;;;;;109.97;52.57;;;;;;;;;;4442604;32;20660;-52
2022/01/19 15:39:52;;;;;;;101.77;49.67;;;;;;;;;;4449356;32;20304;-51
2022/01/19 15:42:18;;;;;;;93.53;48.93;;;;;;;;;;4434457;32;20248;-53
2022/01/19 15:44:43;;;;;;;119.90;59.60;;;;;;;;;;4443139;32;20250;-52
2022/01/19 15:47:10;;;;;;;213.53;97.90;;;;;;;;;;4447988;32;20333;-53
2022/01/19 15:49:36;;;;;;;251.47;111.50;;;;;;;;;;4443422;32;20247;-53
2022/01/19 15:52:03;;;;;;;227.00;97.33;;;;;;;;;;4433671;32;20799;-55
2022/01/19 15:54:28;;;;;;;237.77;105.53;;;;;;;;;;4435165;32;20197;-54
2022/01/19 15:56:54;;;;;;;231.80;107.27;;;;;;;;;;4433120;32;20284;-53
2022/01/19 15:59:19;;;;;;;207.63;102.63;;;;;;;;;;4433000;32;20232;-52
2022/01/19 16:01:46;;;;;;;201.07;97.07;;;;;;;;;;4432556;32;20371;-52
2022/01/19 16:04:12;;;;;;;190.83;92.37;;;;;;;;;;4432235;32;20229;-52
2022/01/19 16:06:42;;;;;;;200.30;93.23;;;;;;;;;;4432972;32;20268;-52
2022/01/19 16:09:14;;;;;;;168.50;85.80;;;;;;;;;;4432565;32;20249;-53
2022/01/19 16:11:40;;;;;;;182.87;88.00;;;;;;;;;;4431744;32;20634;-55
2022/01/19 16:14:05;;;;;;;190.63;97.03;;;;;;;;;;4437844;32;20314;-54
2022/01/19 16:16:31;;;;;;;216.87;106.27;;;;;;;;;;4444564;32;20303;-58
2022/01/19 16:18:57;;;;;;;188.57;97.93;;;;;;;;;;4440100;32;20252;-56
2022/01/19 16:21:23;;;;;;;186.47;92.43;;;;;;;;;;4449219;32;20275;-56
2022/01/19 16:26:32;;;;;;;207.20;103.93;;;;;;;;;;4436549;32;20235;-57
2022/01/19 16:28:59;;;;;;;203.57;101.33;;;;;;;;;;4443558;32;20232;-55
2022/01/19 16:31:25;;;;;;;198.40;98.03;;;;;;;;;;4425692;32;20815;-54
2022/01/19 16:33:52;;;;;;;202.27;97.23;;;;;;;;;;4441453;32;20339;-53
2022/01/19 16:36:18;;;;;;;153.87;78.57;;;;;;;;;;4449671;32;20216;-54